sensor_id;sensor_type;location;lat;lon;timestamp;P1;durP1;ratioP1;P2;durP2;ratioP2
38034;SDS011;23841;48.524;1.342;2022-10-31T00:01:53;3.50;;;1.17;;
38034;SDS011;23841;48.524;1.342;2022-10-31T00:04:18;4.70;;;1.10;;
38034;SDS011;23841;48.524;1.342;2022-10-31T00:06:43;1.85;;;0.90;;
38034;SDS011;23841;48.524;1.342;2022-10-31T00:09:09;3.00;;;1.00;;
38034;SDS011;23841;48.524;1.342;2022-10-31T00:11:34;3.03;;;1.10;;
38034;SDS011;23841;48.524;1.342;2022-10-31T00:14:00;2.10;;;1.30;;
38034;SDS011;23841;48.524;1.342;2022-10-31T00:16:26;4.00;;;1.23;;
38034;SDS011;23841;48.524;1.342;2022-10-31T00:18:52;2.97;;;1.20;;
38034;SDS011;23841;48.524;1.342;2022-10-31T00:21:18;3.13;;;1.20;;
38034;SDS011;23841;48.524;1.342;2022-10-31T00:23:43;3.53;;;1.20;;
38034;SDS011;23841;48.524;1.342;2022-10-31T00:26:08;2.58;;;1.00;;
38034;SDS011;23841;48.524;1.342;2022-10-31T00:28:34;1.63;;;1.00;;
38034;SDS011;23841;48.524;1.342;2022-10-31T00:31:00;3.58;;;1.30;;
38034;SDS011;23841;48.524;1.342;2022-10-31T00:33:25;3.42;;;1.20;;
38034;SDS011;23841;48.524;1.342;2022-10-31T00:35:50;2.22;;;1.10;;
38034;SDS011;23841;48.524;1.342;2022-10-31T00:38:16;2.63;;;1.27;;
38034;SDS011;23841;48.524;1.342;2022-10-31T00:40:41;3.38;;;1.27;;
38034;SDS011;23841;48.524;1.342;2022-10-31T00:43:06;2.80;;;1.10;;
38034;SDS011;23841;48.524;1.342;2022-10-31T00:45:32;1.88;;;1.15;;
38034;SDS011;23841;48.524;1.342;2022-10-31T00:47:57;3.42;;;1.42;;
38034;SDS011;23841;48.524;1.342;2022-10-31T00:50:22;2.67;;;1.23;;
38034;SDS011;23841;48.524;1.342;2022-10-31T00:52:49;5.63;;;1.30;;
38034;SDS011;23841;48.524;1.342;2022-10-31T00:55:15;2.30;;;1.10;;
38034;SDS011;23841;48.524;1.342;2022-10-31T00:57:40;2.28;;;1.02;;
38034;SDS011;23841;48.524;1.342;2022-10-31T01:00:06;3.10;;;1.10;;
38034;SDS011;23841;48.524;1.342;2022-10-31T01:02:31;2.42;;;1.00;;
38034;SDS011;23841;48.524;1.342;2022-10-31T01:04:57;2.22;;;1.10;;
38034;SDS011;23841;48.524;1.342;2022-10-31T01:07:26;2.50;;;1.10;;
38034;SDS011;23841;48.524;1.342;2022-10-31T01:09:51;3.00;;;1.10;;
38034;SDS011;23841;48.524;1.342;2022-10-31T01:12:16;2.70;;;1.30;;
38034;SDS011;23841;48.524;1.342;2022-10-31T01:14:42;2.00;;;0.90;;
38034;SDS011;23841;48.524;1.342;2022-10-31T01:17:08;3.67;;;1.33;;
38034;SDS011;23841;48.524;1.342;2022-10-31T01:19:33;2.38;;;1.20;;
38034;SDS011;23841;48.524;1.342;2022-10-31T01:21:59;2.03;;;1.08;;
38034;SDS011;23841;48.524;1.342;2022-10-31T01:24:24;2.92;;;1.15;;
38034;SDS011;23841;48.524;1.342;2022-10-31T01:26:50;3.83;;;1.20;;
38034;SDS011;23841;48.524;1.342;2022-10-31T01:29:15;1.95;;;1.00;;
38034;SDS011;23841;48.524;1.342;2022-10-31T01:31:41;2.78;;;1.63;;
38034;SDS011;23841;48.524;1.342;2022-10-31T01:34:06;4.18;;;1.20;;
38034;SDS011;23841;48.524;1.342;2022-10-31T01:36:36;2.00;;;1.15;;
38034;SDS011;23841;48.524;1.342;2022-10-31T01:39:04;1.52;;;1.00;;
38034;SDS011;23841;48.524;1.342;2022-10-31T01:41:31;2.13;;;1.20;;
38034;SDS011;23841;48.524;1.342;2022-10-31T01:44:00;2.78;;;1.17;;
38034;SDS011;23841;48.524;1.342;2022-10-31T01:46:38;2.00;;;1.00;;
38034;SDS011;23841;48.524;1.342;2022-10-31T01:49:14;2.42;;;1.10;;
38034;SDS011;23841;48.524;1.342;2022-10-31T01:51:44;5.32;;;1.80;;
38034;SDS011;23841;48.524;1.342;2022-10-31T01:54:12;4.47;;;1.30;;
38034;SDS011;23841;48.524;1.342;2022-10-31T01:56:41;2.90;;;1.10;;
38034;SDS011;23841;48.524;1.342;2022-10-31T01:59:10;2.65;;;1.33;;
38034;SDS011;23841;48.524;1.342;2022-10-31T02:01:37;3.33;;;1.02;;
38034;SDS011;23841;48.524;1.342;2022-10-31T02:04:03;1.90;;;1.10;;
38034;SDS011;23841;48.524;1.342;2022-10-31T02:07:02;3.47;;;1.17;;
38034;SDS011;23841;48.524;1.342;2022-10-31T02:09:20;2.22;;;0.93;;
38034;SDS011;23841;48.524;1.342;2022-10-31T02:11:54;2.22;;;1.27;;
38034;SDS011;23841;48.524;1.342;2022-10-31T02:14:22;2.15;;;1.30;;
38034;SDS011;23841;48.524;1.342;2022-10-31T02:16:47;1.70;;;0.88;;
38034;SDS011;23841;48.524;1.342;2022-10-31T02:19:14;2.35;;;1.30;;
38034;SDS011;23841;48.524;1.342;2022-10-31T02:21:43;1.73;;;1.13;;
38034;SDS011;23841;48.524;1.342;2022-10-31T02:26:57;2.33;;;1.20;;
38034;SDS011;23841;48.524;1.342;2022-10-31T02:29:35;5.65;;;2.63;;
38034;SDS011;23841;48.524;1.342;2022-10-31T02:34:58;3.58;;;1.35;;
38034;SDS011;23841;48.524;1.342;2022-10-31T02:42:32;3.13;;;1.33;;
38034;SDS011;23841;48.524;1.342;2022-10-31T02:45:11;2.70;;;1.40;;
38034;SDS011;23841;48.524;1.342;2022-10-31T02:47:39;2.80;;;1.35;;
38034;SDS011;23841;48.524;1.342;2022-10-31T02:50:06;2.67;;;1.45;;
38034;SDS011;23841;48.524;1.342;2022-10-31T02:52:38;3.33;;;1.77;;
38034;SDS011;23841;48.524;1.342;2022-10-31T02:55:39;2.45;;;1.55;;
38034;SDS011;23841;48.524;1.342;2022-10-31T02:57:59;3.22;;;1.73;;
38034;SDS011;23841;48.524;1.342;2022-10-31T03:00:26;2.58;;;1.65;;
38034;SDS011;23841;48.524;1.342;2022-10-31T03:07:59;4.63;;;2.22;;
38034;SDS011;23841;48.524;1.342;2022-10-31T03:15:43;6.03;;;2.63;;
38034;SDS011;23841;48.524;1.342;2022-10-31T03:18:21;2.95;;;2.00;;
38034;SDS011;23841;48.524;1.342;2022-10-31T03:20:50;4.38;;;2.20;;
38034;SDS011;23841;48.524;1.342;2022-10-31T03:23:17;4.57;;;2.20;;
38034;SDS011;23841;48.524;1.342;2022-10-31T03:25:44;3.78;;;2.17;;
38034;SDS011;23841;48.524;1.342;2022-10-31T03:28:11;4.35;;;2.53;;
38034;SDS011;23841;48.524;1.342;2022-10-31T03:30:38;5.18;;;2.55;;
38034;SDS011;23841;48.524;1.342;2022-10-31T03:33:05;3.40;;;2.25;;
38034;SDS011;23841;48.524;1.342;2022-10-31T03:35:33;4.80;;;2.42;;
38034;SDS011;23841;48.524;1.342;2022-10-31T03:38:00;5.05;;;2.90;;
38034;SDS011;23841;48.524;1.342;2022-10-31T03:40:27;5.43;;;2.40;;
38034;SDS011;23841;48.524;1.342;2022-10-31T03:42:57;4.25;;;2.60;;
38034;SDS011;23841;48.524;1.342;2022-10-31T03:45:24;5.75;;;2.55;;
38034;SDS011;23841;48.524;1.342;2022-10-31T03:47:49;4.53;;;2.35;;
38034;SDS011;23841;48.524;1.342;2022-10-31T03:50:15;3.50;;;2.20;;
38034;SDS011;23841;48.524;1.342;2022-10-31T03:55:11;4.47;;;2.50;;
38034;SDS011;23841;48.524;1.342;2022-10-31T03:57:41;4.28;;;2.47;;
38034;SDS011;23841;48.524;1.342;2022-10-31T04:00:10;4.55;;;2.40;;
38034;SDS011;23841;48.524;1.342;2022-10-31T04:02:37;4.78;;;2.60;;
38034;SDS011;23841;48.524;1.342;2022-10-31T04:05:03;3.75;;;2.47;;
38034;SDS011;23841;48.524;1.342;2022-10-31T04:07:30;7.25;;;2.42;;
38034;SDS011;23841;48.524;1.342;2022-10-31T04:09:57;4.38;;;2.45;;
38034;SDS011;23841;48.524;1.342;2022-10-31T04:12:22;4.82;;;2.58;;
38034;SDS011;23841;48.524;1.342;2022-10-31T04:14:49;3.67;;;2.20;;
38034;SDS011;23841;48.524;1.342;2022-10-31T04:17:16;4.30;;;2.45;;
38034;SDS011;23841;48.524;1.342;2022-10-31T04:19:43;5.43;;;2.03;;
38034;SDS011;23841;48.524;1.342;2022-10-31T04:22:08;3.97;;;2.45;;
38034;SDS011;23841;48.524;1.342;2022-10-31T04:24:33;3.22;;;1.90;;
38034;SDS011;23841;48.524;1.342;2022-10-31T04:26:58;3.92;;;2.10;;
38034;SDS011;23841;48.524;1.342;2022-10-31T04:29:24;5.93;;;2.45;;
38034;SDS011;23841;48.524;1.342;2022-10-31T04:31:49;5.43;;;2.20;;
38034;SDS011;23841;48.524;1.342;2022-10-31T04:34:14;3.60;;;2.00;;
38034;SDS011;23841;48.524;1.342;2022-10-31T04:36:39;4.05;;;2.13;;
38034;SDS011;23841;48.524;1.342;2022-10-31T04:39:05;5.70;;;3.28;;
38034;SDS011;23841;48.524;1.342;2022-10-31T04:41:30;2.95;;;1.80;;
38034;SDS011;23841;48.524;1.342;2022-10-31T04:43:55;3.53;;;2.00;;
38034;SDS011;23841;48.524;1.342;2022-10-31T04:46:20;3.40;;;2.03;;
38034;SDS011;23841;48.524;1.342;2022-10-31T04:48:46;2.95;;;1.70;;
38034;SDS011;23841;48.524;1.342;2022-10-31T04:51:11;4.18;;;1.60;;
38034;SDS011;23841;48.524;1.342;2022-10-31T04:53:36;4.32;;;2.20;;
38034;SDS011;23841;48.524;1.342;2022-10-31T04:56:02;6.28;;;2.88;;
38034;SDS011;23841;48.524;1.342;2022-10-31T04:58:27;3.45;;;1.80;;
38034;SDS011;23841;48.524;1.342;2022-10-31T05:00:53;5.00;;;1.85;;
38034;SDS011;23841;48.524;1.342;2022-10-31T05:03:18;2.92;;;1.77;;
38034;SDS011;23841;48.524;1.342;2022-10-31T05:05:44;2.53;;;1.75;;
38034;SDS011;23841;48.524;1.342;2022-10-31T05:08:09;3.58;;;1.70;;
38034;SDS011;23841;48.524;1.342;2022-10-31T05:10:34;2.92;;;1.63;;
38034;SDS011;23841;48.524;1.342;2022-10-31T05:13:00;3.10;;;1.77;;
38034;SDS011;23841;48.524;1.342;2022-10-31T05:15:27;3.47;;;1.70;;
38034;SDS011;23841;48.524;1.342;2022-10-31T05:17:53;3.80;;;1.70;;
38034;SDS011;23841;48.524;1.342;2022-10-31T05:20:19;3.08;;;1.70;;
38034;SDS011;23841;48.524;1.342;2022-10-31T05:22:53;3.60;;;2.00;;
38034;SDS011;23841;48.524;1.342;2022-10-31T05:25:20;2.30;;;1.30;;
38034;SDS011;23841;48.524;1.342;2022-10-31T05:27:46;2.83;;;1.25;;
38034;SDS011;23841;48.524;1.342;2022-10-31T05:30:12;2.95;;;1.67;;
38034;SDS011;23841;48.524;1.342;2022-10-31T05:32:41;2.80;;;1.50;;
38034;SDS011;23841;48.524;1.342;2022-10-31T05:35:07;2.08;;;1.30;;
38034;SDS011;23841;48.524;1.342;2022-10-31T05:37:35;2.97;;;1.58;;
38034;SDS011;23841;48.524;1.342;2022-10-31T05:40:01;3.35;;;1.50;;
38034;SDS011;23841;48.524;1.342;2022-10-31T05:42:26;4.07;;;1.60;;
38034;SDS011;23841;48.524;1.342;2022-10-31T05:44:52;2.08;;;1.33;;
38034;SDS011;23841;48.524;1.342;2022-10-31T05:47:17;2.00;;;1.25;;
38034;SDS011;23841;48.524;1.342;2022-10-31T05:49:42;3.40;;;1.58;;
38034;SDS011;23841;48.524;1.342;2022-10-31T05:52:07;2.20;;;1.35;;
38034;SDS011;23841;48.524;1.342;2022-10-31T05:54:33;3.75;;;1.65;;
38034;SDS011;23841;48.524;1.342;2022-10-31T05:56:58;2.55;;;1.33;;
38034;SDS011;23841;48.524;1.342;2022-10-31T05:59:23;3.58;;;1.55;;
38034;SDS011;23841;48.524;1.342;2022-10-31T06:01:48;1.92;;;1.20;;
38034;SDS011;23841;48.524;1.342;2022-10-31T06:04:13;3.45;;;1.67;;
38034;SDS011;23841;48.524;1.342;2022-10-31T06:06:39;2.70;;;1.48;;
38034;SDS011;23841;48.524;1.342;2022-10-31T06:09:04;4.53;;;1.55;;
38034;SDS011;23841;48.524;1.342;2022-10-31T06:11:29;4.25;;;1.50;;
38034;SDS011;23841;48.524;1.342;2022-10-31T06:13:55;1.90;;;1.20;;
38034;SDS011;23841;48.524;1.342;2022-10-31T06:16:20;2.42;;;1.20;;
38034;SDS011;23841;48.524;1.342;2022-10-31T06:18:45;2.70;;;1.42;;
38034;SDS011;23841;48.524;1.342;2022-10-31T06:21:11;3.28;;;1.30;;
38034;SDS011;23841;48.524;1.342;2022-10-31T06:23:36;3.90;;;1.60;;
38034;SDS011;23841;48.524;1.342;2022-10-31T06:26:01;4.05;;;1.67;;
38034;SDS011;23841;48.524;1.342;2022-10-31T06:28:27;3.88;;;1.55;;
38034;SDS011;23841;48.524;1.342;2022-10-31T06:30:52;2.22;;;1.15;;
38034;SDS011;23841;48.524;1.342;2022-10-31T06:33:17;2.50;;;1.50;;
38034;SDS011;23841;48.524;1.342;2022-10-31T06:35:46;1.77;;;1.20;;
38034;SDS011;23841;48.524;1.342;2022-10-31T06:38:11;2.08;;;1.40;;
38034;SDS011;23841;48.524;1.342;2022-10-31T06:40:37;2.67;;;1.23;;
38034;SDS011;23841;48.524;1.342;2022-10-31T06:43:02;3.13;;;1.80;;
38034;SDS011;23841;48.524;1.342;2022-10-31T06:45:27;4.07;;;1.58;;
38034;SDS011;23841;48.524;1.342;2022-10-31T06:47:53;2.60;;;1.35;;
38034;SDS011;23841;48.524;1.342;2022-10-31T06:50:19;3.72;;;1.38;;
38034;SDS011;23841;48.524;1.342;2022-10-31T06:52:49;3.20;;;1.23;;
38034;SDS011;23841;48.524;1.342;2022-10-31T06:55:15;1.92;;;1.15;;
38034;SDS011;23841;48.524;1.342;2022-10-31T06:57:40;3.78;;;1.20;;
38034;SDS011;23841;48.524;1.342;2022-10-31T07:00:05;2.80;;;1.23;;
38034;SDS011;23841;48.524;1.342;2022-10-31T07:02:31;3.00;;;1.42;;
38034;SDS011;23841;48.524;1.342;2022-10-31T07:04:56;3.10;;;1.55;;
38034;SDS011;23841;48.524;1.342;2022-10-31T07:07:21;2.67;;;1.23;;
38034;SDS011;23841;48.524;1.342;2022-10-31T07:09:46;2.92;;;1.35;;
38034;SDS011;23841;48.524;1.342;2022-10-31T07:12:12;3.38;;;1.15;;
38034;SDS011;23841;48.524;1.342;2022-10-31T07:14:37;2.40;;;1.30;;
38034;SDS011;23841;48.524;1.342;2022-10-31T07:17:02;3.58;;;1.40;;
38034;SDS011;23841;48.524;1.342;2022-10-31T07:19:28;2.72;;;1.33;;
38034;SDS011;23841;48.524;1.342;2022-10-31T07:21:53;2.55;;;1.30;;
38034;SDS011;23841;48.524;1.342;2022-10-31T07:24:18;2.92;;;1.40;;
38034;SDS011;23841;48.524;1.342;2022-10-31T07:26:43;2.75;;;1.30;;
38034;SDS011;23841;48.524;1.342;2022-10-31T07:29:10;2.38;;;1.45;;
38034;SDS011;23841;48.524;1.342;2022-10-31T07:31:36;2.28;;;1.17;;
38034;SDS011;23841;48.524;1.342;2022-10-31T07:34:01;3.35;;;1.40;;
38034;SDS011;23841;48.524;1.342;2022-10-31T07:36:26;2.60;;;1.30;;
38034;SDS011;23841;48.524;1.342;2022-10-31T07:38:51;1.48;;;1.00;;
38034;SDS011;23841;48.524;1.342;2022-10-31T07:41:17;4.47;;;1.52;;
38034;SDS011;23841;48.524;1.342;2022-10-31T07:43:42;3.35;;;1.52;;
38034;SDS011;23841;48.524;1.342;2022-10-31T07:46:07;3.45;;;1.48;;
38034;SDS011;23841;48.524;1.342;2022-10-31T07:48:32;2.13;;;1.30;;
38034;SDS011;23841;48.524;1.342;2022-10-31T07:50:58;3.00;;;1.45;;
38034;SDS011;23841;48.524;1.342;2022-10-31T07:53:23;3.13;;;1.60;;
38034;SDS011;23841;48.524;1.342;2022-10-31T07:55:48;2.28;;;1.45;;
38034;SDS011;23841;48.524;1.342;2022-10-31T07:58:14;2.40;;;1.30;;
38034;SDS011;23841;48.524;1.342;2022-10-31T08:00:41;2.85;;;1.30;;
38034;SDS011;23841;48.524;1.342;2022-10-31T08:03:10;2.92;;;1.40;;
38034;SDS011;23841;48.524;1.342;2022-10-31T08:05:37;2.67;;;1.55;;
38034;SDS011;23841;48.524;1.342;2022-10-31T08:08:03;3.13;;;1.52;;
38034;SDS011;23841;48.524;1.342;2022-10-31T08:10:29;3.10;;;1.45;;
38034;SDS011;23841;48.524;1.342;2022-10-31T08:12:55;5.20;;;1.42;;
38034;SDS011;23841;48.524;1.342;2022-10-31T08:15:20;3.63;;;1.75;;
38034;SDS011;23841;48.524;1.342;2022-10-31T08:17:45;2.70;;;1.45;;
38034;SDS011;23841;48.524;1.342;2022-10-31T08:20:11;3.05;;;1.50;;
38034;SDS011;23841;48.524;1.342;2022-10-31T08:22:36;4.75;;;1.85;;
38034;SDS011;23841;48.524;1.342;2022-10-31T08:25:01;3.67;;;1.52;;
38034;SDS011;23841;48.524;1.342;2022-10-31T08:27:27;4.15;;;1.48;;
38034;SDS011;23841;48.524;1.342;2022-10-31T08:29:52;4.93;;;1.63;;
38034;SDS011;23841;48.524;1.342;2022-10-31T08:32:17;3.63;;;1.90;;
38034;SDS011;23841;48.524;1.342;2022-10-31T08:34:43;3.70;;;1.50;;
38034;SDS011;23841;48.524;1.342;2022-10-31T08:37:10;4.45;;;1.73;;
38034;SDS011;23841;48.524;1.342;2022-10-31T08:39:35;3.70;;;1.70;;
38034;SDS011;23841;48.524;1.342;2022-10-31T08:42:00;2.97;;;1.52;;
38034;SDS011;23841;48.524;1.342;2022-10-31T08:44:25;3.28;;;1.55;;
38034;SDS011;23841;48.524;1.342;2022-10-31T08:46:51;5.15;;;1.73;;
38034;SDS011;23841;48.524;1.342;2022-10-31T08:49:16;4.15;;;1.80;;
38034;SDS011;23841;48.524;1.342;2022-10-31T08:51:41;3.88;;;1.98;;
38034;SDS011;23841;48.524;1.342;2022-10-31T08:54:06;4.90;;;2.03;;
38034;SDS011;23841;48.524;1.342;2022-10-31T08:56:32;2.83;;;1.58;;
38034;SDS011;23841;48.524;1.342;2022-10-31T08:58:57;5.15;;;2.63;;
38034;SDS011;23841;48.524;1.342;2022-10-31T09:01:22;5.15;;;2.03;;
38034;SDS011;23841;48.524;1.342;2022-10-31T09:03:48;3.58;;;1.90;;
38034;SDS011;23841;48.524;1.342;2022-10-31T09:06:13;6.07;;;2.20;;
38034;SDS011;23841;48.524;1.342;2022-10-31T09:08:38;4.25;;;2.10;;
38034;SDS011;23841;48.524;1.342;2022-10-31T09:11:04;5.25;;;2.20;;
38034;SDS011;23841;48.524;1.342;2022-10-31T09:13:29;5.43;;;2.17;;
38034;SDS011;23841;48.524;1.342;2022-10-31T09:15:55;7.20;;;2.22;;
38034;SDS011;23841;48.524;1.342;2022-10-31T09:18:21;7.65;;;2.58;;
38034;SDS011;23841;48.524;1.342;2022-10-31T09:20:47;5.45;;;2.50;;
38034;SDS011;23841;48.524;1.342;2022-10-31T09:23:13;5.68;;;2.65;;
38034;SDS011;23841;48.524;1.342;2022-10-31T09:25:39;5.95;;;2.78;;
38034;SDS011;23841;48.524;1.342;2022-10-31T09:28:05;5.55;;;2.75;;
38034;SDS011;23841;48.524;1.342;2022-10-31T09:30:31;8.65;;;3.33;;
38034;SDS011;23841;48.524;1.342;2022-10-31T09:32:57;9.95;;;3.58;;
38034;SDS011;23841;48.524;1.342;2022-10-31T09:35:23;7.72;;;3.20;;
38034;SDS011;23841;48.524;1.342;2022-10-31T09:37:55;8.95;;;3.90;;
38034;SDS011;23841;48.524;1.342;2022-10-31T09:40:21;8.77;;;3.63;;
38034;SDS011;23841;48.524;1.342;2022-10-31T09:42:55;11.85;;;4.50;;
38034;SDS011;23841;48.524;1.342;2022-10-31T09:45:26;9.55;;;4.20;;
38034;SDS011;23841;48.524;1.342;2022-10-31T09:50:36;9.95;;;4.22;;
38034;SDS011;23841;48.524;1.342;2022-10-31T09:53:04;12.32;;;4.45;;
38034;SDS011;23841;48.524;1.342;2022-10-31T09:55:31;12.25;;;4.28;;
38034;SDS011;23841;48.524;1.342;2022-10-31T09:57:59;8.57;;;4.40;;
38034;SDS011;23841;48.524;1.342;2022-10-31T10:00:26;11.27;;;4.18;;
38034;SDS011;23841;48.524;1.342;2022-10-31T10:05:32;13.20;;;4.30;;
38034;SDS011;23841;48.524;1.342;2022-10-31T10:08:32;9.13;;;4.28;;
38034;SDS011;23841;48.524;1.342;2022-10-31T10:25:53;8.68;;;4.38;;
38034;SDS011;23841;48.524;1.342;2022-10-31T10:28:25;9.07;;;4.65;;
38034;SDS011;23841;48.524;1.342;2022-10-31T10:30:56;8.90;;;4.25;;
38034;SDS011;23841;48.524;1.342;2022-10-31T10:33:24;14.02;;;5.45;;
38034;SDS011;23841;48.524;1.342;2022-10-31T10:35:53;10.10;;;4.55;;
38034;SDS011;23841;48.524;1.342;2022-10-31T10:38:26;10.07;;;4.60;;
38034;SDS011;23841;48.524;1.342;2022-10-31T10:40:52;9.57;;;4.18;;
38034;SDS011;23841;48.524;1.342;2022-10-31T10:43:32;8.40;;;4.63;;
38034;SDS011;23841;48.524;1.342;2022-10-31T10:48:48;10.38;;;4.72;;
38034;SDS011;23841;48.524;1.342;2022-10-31T10:51:21;10.85;;;4.63;;
38034;SDS011;23841;48.524;1.342;2022-10-31T10:53:58;10.65;;;4.80;;
38034;SDS011;23841;48.524;1.342;2022-10-31T10:58:56;11.02;;;4.95;;
38034;SDS011;23841;48.524;1.342;2022-10-31T11:01:21;10.23;;;4.88;;
38034;SDS011;23841;48.524;1.342;2022-10-31T11:03:47;12.75;;;5.22;;
38034;SDS011;23841;48.524;1.342;2022-10-31T11:06:16;11.00;;;4.63;;
38034;SDS011;23841;48.524;1.342;2022-10-31T11:08:42;9.88;;;4.40;;
38034;SDS011;23841;48.524;1.342;2022-10-31T11:11:10;13.65;;;4.82;;
38034;SDS011;23841;48.524;1.342;2022-10-31T11:13:39;12.82;;;4.65;;
38034;SDS011;23841;48.524;1.342;2022-10-31T11:18:32;16.98;;;5.10;;
38034;SDS011;23841;48.524;1.342;2022-10-31T11:21:00;10.30;;;4.85;;
38034;SDS011;23841;48.524;1.342;2022-10-31T11:23:26;9.50;;;5.00;;
38034;SDS011;23841;48.524;1.342;2022-10-31T11:25:58;9.18;;;4.68;;
38034;SDS011;23841;48.524;1.342;2022-10-31T11:28:25;12.73;;;5.30;;
38034;SDS011;23841;48.524;1.342;2022-10-31T11:30:57;10.32;;;5.03;;
38034;SDS011;23841;48.524;1.342;2022-10-31T11:35:52;9.88;;;5.20;;
38034;SDS011;23841;48.524;1.342;2022-10-31T11:38:19;11.43;;;5.03;;
38034;SDS011;23841;48.524;1.342;2022-10-31T11:40:53;12.02;;;4.82;;
38034;SDS011;23841;48.524;1.342;2022-10-31T11:43:19;13.38;;;5.35;;
38034;SDS011;23841;48.524;1.342;2022-10-31T11:45:45;11.10;;;4.85;;
38034;SDS011;23841;48.524;1.342;2022-10-31T11:48:15;11.93;;;4.65;;
38034;SDS011;23841;48.524;1.342;2022-10-31T11:50:41;10.52;;;5.03;;
38034;SDS011;23841;48.524;1.342;2022-10-31T11:53:16;10.20;;;4.47;;
38034;SDS011;23841;48.524;1.342;2022-10-31T11:55:41;11.07;;;4.70;;
38034;SDS011;23841;48.524;1.342;2022-10-31T11:58:20;7.90;;;4.63;;
38034;SDS011;23841;48.524;1.342;2022-10-31T12:00:49;14.65;;;5.55;;
38034;SDS011;23841;48.524;1.342;2022-10-31T12:06:08;10.77;;;4.80;;
38034;SDS011;23841;48.524;1.342;2022-10-31T12:08:37;14.05;;;5.10;;
38034;SDS011;23841;48.524;1.342;2022-10-31T12:13:52;12.88;;;5.15;;
38034;SDS011;23841;48.524;1.342;2022-10-31T12:16:39;11.45;;;4.88;;
38034;SDS011;23841;48.524;1.342;2022-10-31T12:24:27;9.25;;;4.75;;
38034;SDS011;23841;48.524;1.342;2022-10-31T12:52:06;8.57;;;5.15;;
38034;SDS011;23841;48.524;1.342;2022-10-31T12:54:46;12.63;;;5.00;;
38034;SDS011;23841;48.524;1.342;2022-10-31T12:59:43;10.98;;;4.78;;
38034;SDS011;23841;48.524;1.342;2022-10-31T13:04:49;13.93;;;5.30;;
38034;SDS011;23841;48.524;1.342;2022-10-31T13:07:19;8.43;;;4.60;;
38034;SDS011;23841;48.524;1.342;2022-10-31T13:09:51;12.10;;;5.97;;
38034;SDS011;23841;48.524;1.342;2022-10-31T13:12:19;12.50;;;4.90;;
38034;SDS011;23841;48.524;1.342;2022-10-31T13:14:49;10.35;;;4.93;;
38034;SDS011;23841;48.524;1.342;2022-10-31T13:17:31;10.38;;;4.90;;
38034;SDS011;23841;48.524;1.342;2022-10-31T13:20:03;12.43;;;5.28;;
38034;SDS011;23841;48.524;1.342;2022-10-31T13:22:31;7.80;;;4.72;;
38034;SDS011;23841;48.524;1.342;2022-10-31T13:24:58;12.48;;;5.07;;
38034;SDS011;23841;48.524;1.342;2022-10-31T13:27:25;8.55;;;4.90;;
38034;SDS011;23841;48.524;1.342;2022-10-31T13:32:17;12.48;;;5.00;;
38034;SDS011;23841;48.524;1.342;2022-10-31T13:34:47;14.90;;;5.75;;
38034;SDS011;23841;48.524;1.342;2022-10-31T13:37:17;12.23;;;4.55;;
38034;SDS011;23841;48.524;1.342;2022-10-31T13:45:17;14.15;;;4.82;;
38034;SDS011;23841;48.524;1.342;2022-10-31T13:47:54;13.05;;;5.43;;
38034;SDS011;23841;48.524;1.342;2022-10-31T13:50:21;12.10;;;4.93;;
38034;SDS011;23841;48.524;1.342;2022-10-31T13:52:47;12.05;;;6.00;;
38034;SDS011;23841;48.524;1.342;2022-10-31T14:03:28;16.00;;;6.07;;
38034;SDS011;23841;48.524;1.342;2022-10-31T14:05:54;10.80;;;5.22;;
38034;SDS011;23841;48.524;1.342;2022-10-31T14:08:24;11.00;;;4.88;;
38034;SDS011;23841;48.524;1.342;2022-10-31T14:10:50;10.02;;;4.97;;
38034;SDS011;23841;48.524;1.342;2022-10-31T14:16:05;10.00;;;4.93;;
38034;SDS011;23841;48.524;1.342;2022-10-31T14:18:35;12.07;;;5.55;;
38034;SDS011;23841;48.524;1.342;2022-10-31T14:21:01;14.63;;;5.03;;
38034;SDS011;23841;48.524;1.342;2022-10-31T14:26:05;14.23;;;5.30;;
38034;SDS011;23841;48.524;1.342;2022-10-31T14:28:32;14.55;;;4.70;;
38034;SDS011;23841;48.524;1.342;2022-10-31T14:30:58;9.00;;;4.85;;
38034;SDS011;23841;48.524;1.342;2022-10-31T14:33:24;9.90;;;5.35;;
38034;SDS011;23841;48.524;1.342;2022-10-31T14:41:15;9.30;;;5.07;;
38034;SDS011;23841;48.524;1.342;2022-10-31T14:51:41;10.77;;;5.00;;
38034;SDS011;23841;48.524;1.342;2022-10-31T14:54:13;12.95;;;4.88;;
38034;SDS011;23841;48.524;1.342;2022-10-31T14:56:46;11.27;;;4.97;;
38034;SDS011;23841;48.524;1.342;2022-10-31T14:59:13;11.63;;;4.93;;
38034;SDS011;23841;48.524;1.342;2022-10-31T15:01:39;8.35;;;4.97;;
38034;SDS011;23841;48.524;1.342;2022-10-31T15:04:25;11.77;;;5.45;;
38034;SDS011;23841;48.524;1.342;2022-10-31T15:07:33;10.13;;;4.65;;
38034;SDS011;23841;48.524;1.342;2022-10-31T15:09:39;13.63;;;4.65;;
38034;SDS011;23841;48.524;1.342;2022-10-31T15:12:21;12.40;;;5.35;;
38034;SDS011;23841;48.524;1.342;2022-10-31T15:14:47;12.82;;;5.88;;
38034;SDS011;23841;48.524;1.342;2022-10-31T15:17:12;11.40;;;5.10;;
38034;SDS011;23841;48.524;1.342;2022-10-31T15:19:39;13.30;;;5.75;;
38034;SDS011;23841;48.524;1.342;2022-10-31T15:22:04;16.48;;;5.00;;
38034;SDS011;23841;48.524;1.342;2022-10-31T15:24:32;19.27;;;5.55;;
38034;SDS011;23841;48.524;1.342;2022-10-31T15:26:58;13.90;;;5.25;;
38034;SDS011;23841;48.524;1.342;2022-10-31T15:29:24;12.38;;;5.20;;
38034;SDS011;23841;48.524;1.342;2022-10-31T15:34:16;10.68;;;5.05;;
38034;SDS011;23841;48.524;1.342;2022-10-31T15:36:47;11.43;;;4.88;;
38034;SDS011;23841;48.524;1.342;2022-10-31T15:39:13;11.85;;;5.40;;
38034;SDS011;23841;48.524;1.342;2022-10-31T15:46:56;12.85;;;4.82;;
38034;SDS011;23841;48.524;1.342;2022-10-31T15:49:31;13.20;;;5.18;;
38034;SDS011;23841;48.524;1.342;2022-10-31T15:51:57;11.87;;;5.40;;
38034;SDS011;23841;48.524;1.342;2022-10-31T15:54:27;12.25;;;4.72;;
38034;SDS011;23841;48.524;1.342;2022-10-31T15:56:53;17.40;;;5.13;;
38034;SDS011;23841;48.524;1.342;2022-10-31T15:59:19;10.75;;;5.35;;
38034;SDS011;23841;48.524;1.342;2022-10-31T16:01:53;14.27;;;5.78;;
38034;SDS011;23841;48.524;1.342;2022-10-31T16:04:21;10.73;;;4.60;;
38034;SDS011;23841;48.524;1.342;2022-10-31T16:06:57;15.00;;;5.32;;
38034;SDS011;23841;48.524;1.342;2022-10-31T16:09:23;12.57;;;5.05;;
38034;SDS011;23841;48.524;1.342;2022-10-31T16:11:49;13.77;;;5.20;;
38034;SDS011;23841;48.524;1.342;2022-10-31T16:14:20;13.43;;;4.63;;
38034;SDS011;23841;48.524;1.342;2022-10-31T16:16:48;10.43;;;4.97;;
38034;SDS011;23841;48.524;1.342;2022-10-31T16:19:32;11.02;;;4.50;;
38034;SDS011;23841;48.524;1.342;2022-10-31T16:22:05;14.38;;;5.38;;
38034;SDS011;23841;48.524;1.342;2022-10-31T16:24:32;11.02;;;4.57;;
38034;SDS011;23841;48.524;1.342;2022-10-31T16:27:15;15.07;;;5.55;;
38034;SDS011;23841;48.524;1.342;2022-10-31T16:29:42;12.95;;;4.75;;
38034;SDS011;23841;48.524;1.342;2022-10-31T16:32:24;11.05;;;4.78;;
38034;SDS011;23841;48.524;1.342;2022-10-31T16:37:33;17.27;;;5.65;;
38034;SDS011;23841;48.524;1.342;2022-10-31T16:39:58;15.52;;;5.38;;
38034;SDS011;23841;48.524;1.342;2022-10-31T16:42:24;9.93;;;4.57;;
38034;SDS011;23841;48.524;1.342;2022-10-31T16:44:49;12.52;;;4.85;;
38034;SDS011;23841;48.524;1.342;2022-10-31T16:47:16;10.65;;;4.88;;
38034;SDS011;23841;48.524;1.342;2022-10-31T16:49:42;9.93;;;4.35;;
38034;SDS011;23841;48.524;1.342;2022-10-31T16:52:08;11.40;;;5.82;;
38034;SDS011;23841;48.524;1.342;2022-10-31T16:54:35;11.05;;;5.00;;
38034;SDS011;23841;48.524;1.342;2022-10-31T16:57:02;12.50;;;4.60;;
38034;SDS011;23841;48.524;1.342;2022-10-31T16:59:28;12.20;;;4.70;;
38034;SDS011;23841;48.524;1.342;2022-10-31T17:01:55;11.57;;;4.32;;
38034;SDS011;23841;48.524;1.342;2022-10-31T17:04:21;10.35;;;4.90;;
38034;SDS011;23841;48.524;1.342;2022-10-31T17:06:47;7.57;;;3.70;;